createdAt,value
2023-01-25T00:01:15.273Z,18.34
2023-01-25T00:02:38.881Z,18.34
2023-01-25T00:03:59.906Z,18.39
2023-01-25T00:05:23.351Z,18.35
2023-01-25T00:06:44.026Z,18.35
2023-01-25T00:08:06.974Z,18.39
2023-01-25T00:09:27.979Z,18.36
2023-01-25T00:10:51.019Z,18.35
2023-01-25T00:12:11.715Z,18.37
2023-01-25T00:13:32.473Z,18.39
2023-01-25T00:14:55.399Z,18.36
2023-01-25T00:16:16.603Z,18.34
2023-01-25T00:17:39.765Z,18.38
2023-01-25T00:19:00.751Z,18.37
2023-01-25T00:20:24.400Z,18.37
2023-01-25T00:21:45.339Z,18.37
2023-01-25T00:23:06.327Z,18.38
2023-01-25T00:24:29.333Z,18.40
2023-01-25T00:25:57.792Z,18.39
2023-01-25T00:27:18.519Z,18.36
2023-01-25T00:28:42.207Z,18.37
2023-01-25T00:30:03.563Z,18.39
2023-01-25T00:31:26.872Z,18.38
2023-01-25T00:32:49.350Z,18.43
2023-01-25T00:34:33.689Z,18.36
2023-01-25T00:35:57.096Z,18.37
2023-01-25T00:37:24.440Z,18.37
2023-01-25T00:38:45.365Z,18.37
2023-01-25T00:40:09.673Z,18.35
2023-01-25T00:41:32.680Z,18.33
2023-01-25T00:42:53.530Z,18.32
2023-01-25T00:44:16.448Z,18.35
2023-01-25T00:45:39.431Z,18.35
2023-01-25T00:47:00.443Z,18.34
2023-01-25T00:48:21.409Z,18.35
2023-01-25T00:49:42.864Z,18.38
2023-01-25T00:51:06.262Z,18.35
2023-01-25T00:52:27.062Z,18.36
2023-01-25T00:53:47.664Z,18.36
2023-01-25T00:55:09.531Z,18.39
2023-01-25T00:56:30.414Z,18.39
2023-01-25T00:57:50.901Z,18.39
2023-01-25T00:59:14.192Z,18.37
2023-01-25T01:00:37.530Z,18.37
2023-01-25T01:01:58.559Z,18.36
2023-01-25T01:03:19.923Z,18.38
2023-01-25T01:04:42.958Z,18.35
2023-01-25T01:06:07.439Z,18.37
2023-01-25T01:07:28.008Z,18.34
2023-01-25T01:08:50.724Z,18.35
2023-01-25T01:10:11.317Z,18.29
2023-01-25T01:11:34.504Z,18.38
2023-01-25T01:12:58.086Z,18.35
2023-01-25T01:14:21.299Z,18.36
2023-01-25T01:15:41.873Z,18.37
2023-01-25T01:17:04.842Z,18.32
2023-01-25T01:18:27.791Z,18.35
2023-01-25T01:19:50.898Z,18.36
2023-01-25T01:21:16.707Z,18.32
2023-01-25T01:22:37.575Z,18.35
2023-01-25T01:23:58.599Z,18.39
2023-01-25T01:25:19.716Z,18.37
2023-01-25T01:26:41.052Z,18.38
2023-01-25T01:28:02.096Z,18.37
2023-01-25T01:29:22.760Z,18.39
2023-01-25T01:30:46.564Z,18.35
2023-01-25T01:32:07.650Z,18.36
2023-01-25T01:33:28.663Z,18.39
2023-01-25T01:34:49.176Z,18.38
2023-01-25T01:36:11.246Z,18.36
2023-01-25T01:37:34.677Z,18.38
2023-01-25T01:38:55.346Z,18.37
2023-01-25T01:40:18.417Z,18.35
2023-01-25T01:41:39.619Z,18.35
2023-01-25T01:43:02.948Z,18.36
2023-01-25T01:44:40.053Z,18.36
2023-01-25T01:46:02.103Z,18.38
2023-01-25T01:47:34.003Z,18.35
2023-01-25T01:49:01.293Z,18.40
2023-01-25T01:50:24.518Z,18.35
2023-01-25T01:51:49.316Z,18.32
2023-01-25T01:53:17.125Z,18.35
2023-01-25T01:54:41.489Z,18.36
2023-01-25T01:56:07.757Z,18.36
2023-01-25T01:57:31.706Z,18.34
2023-01-25T01:58:56.099Z,18.34
2023-01-25T02:00:21.289Z,18.37
2023-01-25T02:01:41.761Z,18.36
2023-01-25T02:03:05.073Z,18.33
2023-01-25T02:04:27.917Z,18.33
2023-01-25T02:05:54.077Z,18.35
2023-01-25T02:07:17.273Z,18.35
2023-01-25T02:08:44.349Z,18.37
2023-01-25T02:10:06.640Z,18.38
2023-01-25T02:11:30.765Z,18.34
2023-01-25T02:12:52.708Z,18.36
2023-01-25T02:14:14.718Z,18.35
2023-01-25T02:15:38.396Z,18.34
2023-01-25T02:16:59.533Z,18.35
2023-01-25T02:18:23.220Z,18.38
2023-01-25T02:19:51.312Z,18.38
2023-01-25T02:21:11.794Z,18.39
2023-01-25T02:22:39.051Z,18.36
2023-01-25T02:24:06.631Z,18.36
2023-01-25T02:25:30.113Z,18.37
2023-01-25T02:26:50.928Z,18.35
2023-01-25T02:28:16.596Z,18.34
2023-01-25T02:29:40.159Z,18.34
2023-01-25T02:31:00.971Z,18.36
2023-01-25T02:32:22.010Z,18.34
2023-01-25T02:33:42.945Z,18.34
2023-01-25T02:35:06.009Z,18.37
2023-01-25T02:36:28.345Z,18.38
2023-01-25T02:37:50.758Z,18.33
2023-01-25T02:39:13.301Z,18.34
2023-01-25T02:40:40.144Z,18.32
2023-01-25T02:42:03.433Z,18.35
2023-01-25T02:43:29.188Z,18.35
2023-01-25T02:44:52.596Z,18.37
2023-01-25T02:46:14.580Z,18.35
2023-01-25T02:47:38.824Z,18.37
2023-01-25T02:49:00.848Z,18.39
2023-01-25T02:50:22.739Z,18.35
2023-01-25T02:51:45.912Z,18.35
2023-01-25T02:53:07.079Z,18.35
2023-01-25T02:54:28.093Z,18.36
2023-01-25T02:55:52.374Z,18.33
2023-01-25T02:57:13.054Z,18.35
2023-01-25T02:58:37.309Z,18.31
2023-01-25T03:00:01.125Z,18.35
2023-01-25T03:01:22.882Z,18.34
2023-01-25T03:02:44.416Z,18.34
2023-01-25T03:04:06.161Z,18.32
2023-01-25T03:05:27.393Z,18.33
2023-01-25T03:06:50.334Z,18.34
2023-01-25T03:08:11.710Z,18.29
2023-01-25T03:09:33.194Z,18.28
2023-01-25T03:10:59.266Z,18.28
2023-01-25T03:12:21.021Z,18.30
2023-01-25T03:13:41.952Z,18.29
2023-01-25T03:15:05.918Z,18.34
2023-01-25T03:16:26.991Z,18.34
2023-01-25T03:17:49.758Z,18.36
2023-01-25T03:19:12.486Z,18.37
2023-01-25T03:20:37.359Z,18.37
2023-01-25T03:22:02.379Z,18.33
2023-01-25T03:23:27.101Z,18.35
2023-01-25T03:24:47.908Z,18.36
2023-01-25T03:26:15.453Z,18.35
2023-01-25T03:27:51.985Z,18.34
2023-01-25T03:29:13.792Z,18.36
2023-01-25T03:30:38.374Z,18.36
2023-01-25T03:31:59.376Z,18.36
2023-01-25T03:33:20.592Z,18.36
2023-01-25T03:34:41.290Z,18.40
2023-01-25T03:36:03.575Z,18.39
2023-01-25T03:37:27.124Z,18.38
2023-01-25T03:38:51.246Z,18.37
2023-01-25T03:40:12.190Z,18.35
2023-01-25T03:41:39.230Z,18.30
2023-01-25T03:43:03.158Z,18.30
2023-01-25T03:44:24.142Z,18.34
2023-01-25T03:45:44.910Z,18.33
2023-01-25T03:47:06.360Z,18.35
2023-01-25T03:48:28.300Z,18.37
2023-01-25T03:49:48.981Z,18.37
2023-01-25T03:51:12.778Z,18.39
2023-01-25T03:52:36.037Z,18.34
2023-01-25T03:54:00.788Z,18.33
2023-01-25T03:55:21.815Z,18.35
2023-01-25T03:56:45.276Z,18.37
2023-01-25T03:58:12.373Z,18.33
2023-01-25T03:59:34.151Z,18.35
2023-01-25T04:00:55.675Z,18.34
2023-01-25T04:02:19.618Z,18.33
2023-01-25T04:03:40.853Z,18.31
2023-01-25T04:05:02.076Z,18.29
2023-01-25T04:06:22.784Z,18.32
2023-01-25T04:07:44.536Z,18.35
2023-01-25T04:09:09.485Z,18.32
2023-01-25T04:10:34.014Z,18.34
2023-01-25T04:11:57.669Z,18.34
2023-01-25T04:13:18.782Z,18.32
2023-01-25T04:14:45.017Z,18.35
2023-01-25T04:16:12.938Z,18.36
2023-01-25T04:17:57.141Z,18.34
2023-01-25T04:19:18.551Z,18.34
2023-01-25T04:20:43.312Z,18.30
2023-01-25T04:22:06.544Z,18.30
2023-01-25T04:23:30.878Z,18.35
2023-01-25T04:24:51.409Z,18.33
2023-01-25T04:26:16.075Z,18.32
2023-01-25T04:27:46.024Z,18.33
2023-01-25T04:29:10.239Z,18.32
2023-01-25T04:30:31.792Z,18.35
2023-01-25T04:31:54.216Z,18.34
2023-01-25T04:33:18.369Z,18.30
2023-01-25T04:34:41.769Z,18.34
2023-01-25T04:36:08.334Z,18.35
2023-01-25T04:37:28.958Z,18.33
2023-01-25T04:38:52.204Z,18.33
2023-01-25T04:40:15.975Z,18.31
2023-01-25T04:41:39.469Z,18.32
2023-01-25T04:43:05.181Z,18.33
2023-01-25T04:44:29.184Z,18.32
2023-01-25T04:45:53.114Z,18.30
2023-01-25T04:47:19.032Z,18.33
2023-01-25T04:48:43.307Z,18.33
2023-01-25T04:50:06.447Z,18.34
2023-01-25T04:51:28.540Z,18.35
2023-01-25T04:52:49.877Z,18.37
2023-01-25T04:54:11.384Z,18.39
2023-01-25T04:55:34.492Z,18.37
2023-01-25T04:57:01.721Z,18.38
2023-01-25T04:58:25.159Z,18.41
2023-01-25T04:59:48.365Z,18.42
2023-01-25T05:01:09.749Z,18.40
2023-01-25T05:02:31.927Z,18.42
2023-01-25T05:03:55.499Z,18.42
2023-01-25T05:05:24.885Z,18.42
2023-01-25T05:06:47.706Z,18.41
2023-01-25T05:08:08.470Z,18.43
2023-01-25T05:09:29.530Z,18.41
2023-01-25T05:10:50.528Z,18.46
2023-01-25T05:12:49.747Z,18.46
2023-01-25T05:14:13.501Z,18.45
2023-01-25T05:15:37.773Z,18.42
2023-01-25T05:17:01.576Z,18.47
2023-01-25T05:18:26.303Z,18.44
2023-01-25T05:19:52.023Z,18.40
2023-01-25T05:21:16.263Z,18.41
2023-01-25T05:22:39.468Z,18.47
2023-01-25T05:24:00.293Z,18.46
2023-01-25T05:25:25.282Z,18.42
2023-01-25T05:26:46.813Z,18.48
2023-01-25T05:28:07.885Z,18.41
2023-01-25T05:29:59.198Z,18.40
2023-01-25T05:31:40.698Z,18.42
2023-01-25T05:33:01.702Z,18.42
2023-01-25T05:34:23.199Z,18.41
2023-01-25T05:35:44.012Z,18.41
2023-01-25T05:37:05.988Z,18.36
2023-01-25T05:38:28.990Z,18.41
2023-01-25T05:39:49.488Z,18.41
2023-01-25T05:41:13.312Z,18.40
2023-01-25T05:42:38.002Z,18.36
2023-01-25T05:44:05.182Z,18.37
2023-01-25T05:45:35.395Z,18.39
2023-01-25T05:46:58.055Z,18.37
2023-01-25T05:48:18.934Z,18.31
2023-01-25T05:49:41.763Z,18.32
2023-01-25T05:51:08.174Z,18.36
2023-01-25T05:52:31.835Z,18.35
2023-01-25T05:53:55.948Z,18.34
2023-01-25T05:55:17.719Z,18.33
2023-01-25T05:56:39.082Z,18.37
2023-01-25T05:58:00.191Z,18.34
2023-01-25T05:59:20.906Z,18.32
2023-01-25T06:00:44.546Z,18.32
2023-01-25T06:02:12.012Z,18.34
2023-01-25T06:03:33.999Z,18.30
2023-01-25T06:04:54.922Z,18.33
2023-01-25T06:06:18.715Z,18.36
2023-01-25T06:07:40.178Z,18.36
2023-01-25T06:09:01.160Z,18.34
2023-01-25T06:10:22.010Z,18.36
2023-01-25T06:11:44.464Z,18.38
2023-01-25T06:13:08.507Z,18.36
2023-01-25T06:14:29.471Z,18.39
2023-01-25T06:15:55.244Z,18.39
2023-01-25T06:17:45.143Z,18.38
2023-01-25T06:19:38.647Z,18.41
2023-01-25T06:21:23.709Z,18.34
2023-01-25T06:22:48.841Z,18.36
2023-01-25T06:24:09.792Z,18.38
2023-01-25T06:25:30.539Z,18.37
2023-01-25T06:26:51.073Z,18.37
2023-01-25T06:28:14.241Z,18.38
2023-01-25T06:29:34.911Z,18.37
2023-01-25T06:31:02.893Z,18.38
2023-01-25T06:32:23.644Z,18.38
2023-01-25T06:33:47.654Z,18.37
2023-01-25T06:35:09.601Z,18.38
2023-01-25T06:36:33.253Z,18.38
2023-01-25T06:37:54.942Z,18.39
2023-01-25T06:39:15.969Z,18.38
2023-01-25T06:40:36.845Z,18.39
2023-01-25T06:41:57.667Z,18.41
2023-01-25T06:43:18.631Z,18.40
2023-01-25T06:44:41.776Z,18.40
2023-01-25T06:46:09.659Z,18.41
2023-01-25T06:47:30.462Z,18.40
2023-01-25T06:48:51.121Z,18.40
2023-01-25T06:50:11.864Z,18.40
2023-01-25T06:51:32.665Z,18.39
2023-01-25T06:52:56.465Z,18.39
2023-01-25T06:54:19.467Z,18.40
2023-01-25T06:55:42.590Z,18.40
2023-01-25T06:57:03.460Z,18.39
2023-01-25T06:58:24.700Z,18.42
2023-01-25T06:59:45.467Z,18.41
2023-01-25T07:01:12.192Z,18.42
2023-01-25T07:02:36.208Z,18.43
2023-01-25T07:03:57.545Z,18.47
2023-01-25T07:05:20.853Z,18.44
2023-01-25T07:06:41.547Z,18.46
2023-01-25T07:08:02.791Z,18.48
2023-01-25T07:09:23.497Z,18.46
2023-01-25T07:10:52.992Z,18.45
2023-01-25T07:12:14.134Z,18.48
2023-01-25T07:13:37.509Z,18.47
2023-01-25T07:15:00.427Z,18.45
2023-01-25T07:16:23.973Z,18.48
2023-01-25T07:17:47.916Z,18.49
2023-01-25T07:19:10.989Z,18.47
2023-01-25T07:20:31.962Z,18.45
2023-01-25T07:21:55.012Z,18.47
2023-01-25T07:23:15.847Z,18.47
2023-01-25T07:24:36.596Z,18.49
2023-01-25T07:25:57.202Z,18.48
2023-01-25T07:27:20.801Z,18.48
2023-01-25T07:28:41.271Z,18.44
2023-01-25T07:30:05.578Z,18.55
2023-01-25T07:31:29.184Z,18.47
2023-01-25T07:32:50.162Z,18.47
2023-01-25T07:34:11.729Z,18.47
2023-01-25T07:35:32.598Z,18.44
2023-01-25T07:36:53.181Z,18.41
2023-01-25T07:38:14.868Z,18.45
2023-01-25T07:39:38.504Z,18.46
2023-01-25T07:41:01.621Z,17.51
2023-01-25T07:42:22.584Z,16.65
2023-01-25T07:44:00.475Z,16.20
2023-01-25T07:45:31.406Z,15.30
2023-01-25T07:46:55.657Z,14.77
2023-01-25T07:48:17.141Z,14.27
2023-01-25T07:49:38.063Z,14.39
2023-01-25T07:50:59.233Z,14.67
2023-01-25T07:52:19.844Z,15.02
2023-01-25T07:53:41.575Z,15.36
2023-01-25T07:55:02.822Z,15.68
2023-01-25T07:56:27.214Z,16.01
2023-01-25T07:57:54.203Z,16.25
2023-01-25T07:59:18.117Z,16.51
2023-01-25T08:00:38.916Z,16.68
2023-01-25T08:02:04.349Z,16.85
2023-01-25T08:03:25.236Z,17.01
2023-01-25T08:04:45.778Z,17.12
2023-01-25T08:06:07.515Z,17.22
2023-01-25T08:07:31.143Z,17.33
2023-01-25T08:08:51.575Z,17.42
2023-01-25T08:10:12.593Z,17.50
2023-01-25T08:11:35.557Z,17.54
2023-01-25T08:12:56.610Z,17.59
2023-01-25T08:14:17.413Z,17.57
2023-01-25T08:15:38.235Z,17.57
2023-01-25T08:16:59.286Z,17.61
2023-01-25T08:18:22.501Z,17.64
2023-01-25T08:19:43.168Z,17.64
2023-01-25T08:21:04.665Z,17.72
2023-01-25T08:22:26.060Z,17.81
2023-01-25T08:23:47.027Z,17.86
2023-01-25T08:25:08.618Z,17.91
2023-01-25T08:26:29.545Z,17.94
2023-01-25T08:27:50.491Z,17.95
2023-01-25T08:29:12.438Z,17.96
2023-01-25T08:30:33.699Z,17.97
2023-01-25T08:31:54.760Z,17.99
2023-01-25T08:33:17.767Z,17.99
2023-01-25T08:34:41.114Z,18.02
2023-01-25T08:36:02.557Z,18.02
2023-01-25T08:37:23.287Z,18.01
2023-01-25T08:38:46.767Z,18.01
2023-01-25T08:40:08.737Z,18.02
2023-01-25T08:41:32.125Z,18.04
2023-01-25T08:42:52.646Z,18.08
2023-01-25T08:44:13.387Z,18.10
2023-01-25T08:45:34.130Z,18.12
2023-01-25T08:46:54.755Z,18.14
2023-01-25T08:48:17.839Z,18.13
2023-01-25T08:49:43.239Z,18.14
2023-01-25T08:51:04.432Z,18.16
2023-01-25T08:52:28.318Z,18.17
2023-01-25T08:53:51.300Z,18.20
2023-01-25T08:55:12.264Z,18.19
2023-01-25T08:56:32.806Z,18.19
2023-01-25T08:57:54.569Z,18.16
2023-01-25T08:59:18.722Z,18.13
2023-01-25T09:00:39.596Z,18.11
2023-01-25T09:02:00.454Z,18.14
2023-01-25T09:03:21.194Z,18.16
2023-01-25T09:04:46.894Z,18.17
2023-01-25T09:06:08.070Z,18.17
2023-01-25T09:07:28.773Z,18.19
2023-01-25T09:08:49.913Z,18.20
2023-01-25T09:10:12.637Z,18.21
2023-01-25T09:11:35.670Z,18.20
2023-01-25T09:12:56.499Z,18.23
2023-01-25T09:14:17.049Z,18.22
2023-01-25T09:15:37.824Z,18.22
2023-01-25T09:16:58.607Z,18.23
2023-01-25T09:18:19.547Z,18.23
2023-01-25T09:19:42.611Z,18.22
2023-01-25T09:21:09.024Z,18.23
2023-01-25T09:22:32.676Z,18.22
2023-01-25T09:24:09.693Z,18.24
2023-01-25T09:25:32.710Z,18.28
2023-01-25T09:26:59.709Z,18.23
2023-01-25T09:28:22.280Z,18.24
2023-01-25T09:29:49.563Z,18.22
2023-01-25T09:31:23.646Z,18.22
2023-01-25T09:33:03.204Z,18.23
2023-01-25T09:34:24.100Z,18.24
2023-01-25T09:35:47.995Z,18.22
2023-01-25T09:37:11.362Z,18.24
2023-01-25T09:38:34.673Z,18.24
2023-01-25T09:39:57.566Z,18.26
2023-01-25T09:41:24.342Z,18.24
2023-01-25T09:42:57.075Z,18.27
2023-01-25T09:44:32.935Z,18.28
2023-01-25T09:45:55.598Z,18.27
2023-01-25T09:47:21.224Z,18.27
2023-01-25T09:48:50.188Z,18.23
2023-01-25T09:50:23.614Z,18.23
2023-01-25T09:51:53.898Z,18.23
2023-01-25T09:53:30.067Z,18.23
2023-01-25T09:54:53.929Z,18.24
2023-01-25T09:56:20.182Z,18.25
2023-01-25T09:57:45.334Z,18.22
2023-01-25T09:59:10.987Z,18.25
2023-01-25T10:00:32.795Z,18.28
2023-01-25T10:01:57.792Z,18.27
2023-01-25T10:03:22.471Z,18.26
2023-01-25T10:04:44.159Z,18.26
2023-01-25T10:06:05.371Z,18.24
2023-01-25T10:07:28.237Z,18.28
2023-01-25T10:08:53.876Z,18.26
2023-01-25T10:10:17.129Z,18.27
2023-01-25T10:11:40.491Z,18.28
2023-01-25T10:13:01.207Z,18.29
2023-01-25T10:14:22.084Z,18.28
2023-01-25T10:15:44.297Z,18.29
2023-01-25T10:17:10.924Z,18.27
2023-01-25T10:18:33.635Z,18.27
2023-01-25T10:20:03.276Z,18.23
2023-01-25T10:21:28.221Z,18.28
2023-01-25T10:22:53.255Z,18.26
2023-01-25T10:24:31.275Z,18.29
2023-01-25T10:25:59.062Z,18.32
2023-01-25T10:27:24.268Z,18.32
2023-01-25T10:28:52.107Z,18.28
2023-01-25T10:30:26.359Z,18.23
2023-01-25T10:31:47.940Z,18.21
2023-01-25T10:33:12.705Z,18.23
2023-01-25T10:34:44.051Z,18.22
2023-01-25T10:36:16.000Z,18.19
2023-01-25T10:37:36.610Z,18.23
2023-01-25T10:38:57.073Z,18.21
2023-01-25T10:40:22.797Z,18.22
2023-01-25T10:41:49.164Z,18.25
2023-01-25T10:43:14.158Z,18.24
2023-01-25T10:44:38.103Z,18.25
2023-01-25T10:45:59.165Z,18.24
2023-01-25T10:47:23.449Z,18.26
2023-01-25T10:48:44.152Z,18.26
2023-01-25T10:50:05.271Z,18.26
2023-01-25T10:51:29.696Z,18.27
2023-01-25T10:52:57.076Z,18.26
2023-01-25T10:54:18.070Z,18.28
2023-01-25T10:55:54.997Z,18.27
2023-01-25T10:57:18.008Z,18.24
2023-01-25T10:58:39.838Z,18.24
2023-01-25T11:00:01.749Z,18.26
2023-01-25T11:01:30.746Z,18.26
2023-01-25T11:02:52.114Z,18.27
2023-01-25T11:04:24.127Z,18.29
2023-01-25T11:05:52.856Z,18.29
2023-01-25T11:07:26.668Z,18.33
2023-01-25T11:08:47.299Z,18.35
2023-01-25T11:10:27.320Z,18.29
2023-01-25T11:11:56.454Z,18.29
2023-01-25T11:13:22.703Z,18.30
2023-01-25T11:14:43.410Z,18.27
2023-01-25T11:16:17.355Z,18.29
2023-01-25T11:17:38.321Z,18.30
2023-01-25T11:19:02.302Z,18.29
2023-01-25T11:20:23.166Z,18.24
2023-01-25T11:21:51.515Z,18.27
2023-01-25T11:23:21.614Z,18.32
2023-01-25T11:24:42.504Z,18.32
2023-01-25T11:26:14.477Z,18.32
2023-01-25T11:27:37.806Z,18.31
2023-01-25T11:29:11.581Z,18.30
2023-01-25T11:30:32.694Z,18.27
2023-01-25T11:31:54.951Z,18.30
2023-01-25T11:33:19.959Z,18.30
2023-01-25T11:34:40.894Z,18.33
2023-01-25T11:36:10.108Z,18.31
2023-01-25T11:37:39.886Z,18.30
2023-01-25T11:39:10.327Z,18.29
2023-01-25T11:40:34.093Z,18.29
2023-01-25T11:42:02.093Z,18.26
2023-01-25T11:43:34.838Z,18.26
2023-01-25T11:45:04.065Z,18.23
2023-01-25T11:46:29.945Z,18.24
2023-01-25T11:48:03.644Z,18.24
2023-01-25T11:49:31.517Z,18.22
2023-01-25T11:50:59.829Z,18.22
2023-01-25T11:52:25.977Z,18.24
2023-01-25T11:53:51.660Z,18.22
2023-01-25T11:55:19.710Z,18.21
2023-01-25T11:56:48.723Z,18.23
2023-01-25T11:58:19.151Z,18.21
2023-01-25T11:59:52.882Z,18.21
2023-01-25T12:01:17.411Z,18.20
2023-01-25T12:02:47.968Z,18.18
2023-01-25T12:04:32.025Z,18.16
2023-01-25T12:05:56.076Z,18.15
2023-01-25T12:07:22.456Z,18.13
2023-01-25T12:08:50.667Z,18.15
2023-01-25T12:10:20.263Z,18.16
2023-01-25T12:11:46.295Z,18.15
2023-01-25T12:13:11.505Z,18.17
2023-01-25T12:14:40.628Z,18.13
2023-01-25T12:16:11.107Z,18.13
2023-01-25T12:17:42.351Z,18.09
2023-01-25T12:19:20.865Z,18.12
2023-01-25T12:21:00.213Z,18.13
2023-01-25T12:22:29.967Z,18.13
2023-01-25T12:24:00.566Z,18.14
2023-01-25T12:25:28.732Z,18.13
2023-01-25T12:26:59.784Z,18.10
2023-01-25T12:28:22.389Z,18.11
2023-01-25T12:29:48.050Z,18.11
2023-01-25T12:31:15.716Z,18.11
2023-01-25T12:32:40.905Z,18.13
2023-01-25T12:34:03.832Z,18.12
2023-01-25T12:35:28.460Z,18.12
2023-01-25T12:36:50.207Z,18.12
2023-01-25T12:38:13.999Z,18.11
2023-01-25T12:39:41.181Z,18.12
2023-01-25T12:41:04.100Z,18.11
2023-01-25T12:42:32.433Z,18.11
2023-01-25T12:43:56.242Z,18.12
2023-01-25T12:45:19.642Z,18.12
2023-01-25T12:46:45.668Z,18.10
2023-01-25T12:48:14.862Z,18.11
2023-01-25T12:49:41.011Z,18.11
2023-01-25T12:51:04.158Z,18.13
2023-01-25T12:52:29.961Z,18.11
2023-01-25T12:53:51.496Z,18.11
2023-01-25T12:55:13.234Z,18.09
2023-01-25T12:56:40.454Z,18.09
2023-01-25T12:58:04.608Z,18.09
2023-01-25T12:59:33.744Z,18.11
2023-01-25T13:00:57.633Z,18.10
2023-01-25T13:02:27.128Z,18.11
2023-01-25T13:03:56.291Z,18.13
2023-01-25T13:05:25.746Z,18.12
2023-01-25T13:06:48.039Z,18.12
2023-01-25T13:08:23.169Z,18.12
2023-01-25T13:09:58.329Z,18.14
2023-01-25T13:11:21.808Z,18.14
2023-01-25T13:12:52.531Z,18.12
2023-01-25T13:14:26.676Z,18.12
2023-01-25T13:15:47.529Z,18.13
2023-01-25T13:17:13.035Z,18.14
2023-01-25T13:18:40.838Z,18.13
2023-01-25T13:20:01.788Z,18.10
2023-01-25T13:21:41.731Z,18.09
2023-01-25T13:23:02.858Z,18.15
2023-01-25T13:24:24.525Z,18.14
2023-01-25T13:25:45.612Z,18.12
2023-01-25T13:27:23.934Z,18.14
2023-01-25T13:28:47.678Z,18.14
2023-01-25T13:30:26.198Z,18.15
2023-01-25T13:31:52.491Z,18.16
2023-01-25T13:33:31.962Z,18.15
2023-01-25T13:34:59.055Z,18.16
2023-01-25T13:36:42.371Z,18.13
2023-01-25T13:38:05.264Z,18.14
2023-01-25T13:39:41.037Z,18.14
2023-01-25T13:41:05.873Z,18.11
2023-01-25T13:42:27.984Z,18.13
2023-01-25T13:43:54.129Z,18.10
2023-01-25T13:45:17.285Z,18.10
2023-01-25T13:46:38.207Z,18.12
2023-01-25T13:48:01.216Z,18.13
2023-01-25T13:49:24.520Z,18.12
2023-01-25T13:50:51.181Z,18.11
2023-01-25T13:52:14.704Z,18.10
2023-01-25T13:53:38.023Z,18.11
2023-01-25T13:55:01.064Z,18.10
2023-01-25T13:56:29.051Z,18.11
2023-01-25T13:57:50.073Z,18.09
2023-01-25T13:59:23.954Z,18.12
2023-01-25T14:00:49.505Z,18.10
2023-01-25T14:02:16.505Z,18.11
2023-01-25T14:03:44.514Z,18.09
2023-01-25T14:05:17.203Z,18.09
2023-01-25T14:06:41.355Z,18.08
2023-01-25T14:08:02.969Z,18.08
2023-01-25T14:09:24.480Z,18.06
2023-01-25T14:10:45.638Z,18.07
2023-01-25T14:12:08.769Z,18.08
2023-01-25T14:13:31.937Z,18.08
2023-01-25T14:14:52.690Z,18.07
2023-01-25T14:16:13.590Z,18.07
2023-01-25T14:17:34.560Z,18.08
2023-01-25T14:18:55.860Z,18.10
2023-01-25T14:20:19.902Z,18.05
2023-01-25T14:21:43.173Z,18.08
2023-01-25T14:23:03.940Z,18.04
2023-01-25T14:24:24.961Z,18.08
2023-01-25T14:25:45.862Z,18.11
2023-01-25T14:27:12.984Z,18.13
2023-01-25T14:28:34.386Z,18.11
2023-01-25T14:29:57.360Z,18.14
2023-01-25T14:31:24.719Z,18.16
2023-01-25T14:32:46.010Z,18.18
2023-01-25T14:34:16.968Z,18.23
2023-01-25T14:35:53.651Z,18.20
2023-01-25T14:37:21.669Z,18.18
2023-01-25T14:38:42.793Z,18.22
2023-01-25T14:40:11.392Z,18.22
2023-01-25T14:41:33.891Z,18.20
2023-01-25T14:42:54.787Z,18.22
2023-01-25T14:44:15.915Z,18.25
2023-01-25T14:45:36.459Z,18.17
2023-01-25T14:47:12.290Z,18.17
2023-01-25T14:48:33.348Z,18.15
2023-01-25T14:50:11.870Z,18.16
2023-01-25T14:51:32.749Z,18.16
2023-01-25T14:52:57.221Z,18.16
2023-01-25T14:54:20.128Z,18.16
2023-01-25T14:55:43.345Z,18.17
2023-01-25T14:57:05.824Z,18.15
2023-01-25T14:58:27.132Z,18.14
2023-01-25T14:59:51.365Z,18.17
2023-01-25T15:01:21.307Z,18.15
2023-01-25T15:02:47.190Z,18.14
2023-01-25T15:04:12.706Z,18.14
2023-01-25T15:05:34.902Z,18.13
2023-01-25T15:07:01.119Z,18.13
2023-01-25T15:08:30.269Z,18.14
2023-01-25T15:10:01.572Z,18.14
2023-01-25T15:11:27.378Z,18.12
2023-01-25T15:13:12.988Z,18.12
2023-01-25T15:14:46.955Z,18.10
2023-01-25T15:16:07.872Z,18.12
2023-01-25T15:17:42.258Z,18.12
2023-01-25T15:19:02.998Z,18.10
2023-01-25T15:20:34.752Z,18.09
2023-01-25T15:21:56.636Z,18.09
2023-01-25T15:23:24.674Z,18.08
2023-01-25T15:24:57.408Z,18.07
2023-01-25T15:26:19.810Z,18.07
2023-01-25T15:27:40.693Z,18.08
2023-01-25T15:29:02.158Z,18.09
2023-01-25T15:30:22.836Z,18.07
2023-01-25T15:31:43.836Z,18.09
2023-01-25T15:33:04.797Z,18.10
2023-01-25T15:34:29.004Z,18.10
2023-01-25T15:35:50.183Z,18.10
2023-01-25T15:37:10.694Z,18.11
2023-01-25T15:38:31.788Z,18.10
2023-01-25T15:39:57.436Z,18.11
2023-01-25T15:41:21.425Z,18.12
2023-01-25T15:42:42.542Z,18.12
2023-01-25T15:44:05.675Z,18.12
2023-01-25T15:45:27.194Z,18.12
2023-01-25T15:46:50.316Z,18.10
2023-01-25T15:48:12.987Z,18.10
2023-01-25T15:49:33.752Z,18.11
2023-01-25T15:50:54.875Z,18.11
2023-01-25T15:52:15.730Z,18.12
2023-01-25T15:53:38.758Z,18.15
2023-01-25T15:55:02.677Z,18.14
2023-01-25T15:56:27.432Z,18.12
2023-01-25T15:57:48.272Z,18.10
2023-01-25T15:59:13.585Z,18.11
2023-01-25T16:00:34.449Z,18.09
2023-01-25T16:01:55.324Z,18.09
2023-01-25T16:03:16.238Z,18.08
2023-01-25T16:04:39.530Z,18.09
2023-01-25T16:06:01.880Z,18.11
2023-01-25T16:07:23.994Z,18.08
2023-01-25T16:08:45.157Z,18.10
2023-01-25T16:10:18.095Z,18.06
2023-01-25T16:11:39.218Z,18.08
2023-01-25T16:13:00.430Z,18.08
2023-01-25T16:14:21.514Z,18.08
2023-01-25T16:15:42.209Z,18.05
2023-01-25T16:17:04.079Z,18.08
2023-01-25T16:18:25.215Z,18.08
2023-01-25T16:19:48.979Z,18.10
2023-01-25T16:21:12.284Z,18.07
2023-01-25T16:22:33.352Z,18.10
2023-01-25T16:23:54.441Z,18.09
2023-01-25T16:25:17.796Z,18.11
2023-01-25T16:26:40.308Z,18.11
2023-01-25T16:28:01.318Z,18.12
2023-01-25T16:29:24.814Z,18.10
2023-01-25T16:30:45.719Z,18.13
2023-01-25T16:32:08.729Z,18.12
2023-01-25T16:33:29.696Z,18.12
2023-01-25T16:34:50.283Z,18.15
2023-01-25T16:36:13.766Z,18.15
2023-01-25T16:37:34.478Z,18.12
2023-01-25T16:38:55.666Z,18.10
2023-01-25T16:40:24.313Z,18.11
2023-01-25T16:41:45.202Z,18.12
2023-01-25T16:43:05.795Z,18.15
2023-01-25T16:44:26.425Z,18.15
2023-01-25T16:45:47.417Z,18.17
2023-01-25T16:47:13.637Z,18.13
2023-01-25T16:48:34.152Z,18.12
2023-01-25T16:49:54.891Z,18.14
2023-01-25T16:51:16.795Z,18.15
2023-01-25T16:52:41.111Z,18.18
2023-01-25T16:54:03.636Z,18.17
2023-01-25T16:55:29.114Z,18.18
2023-01-25T16:56:50.458Z,18.19
2023-01-25T16:58:11.540Z,18.21
2023-01-25T16:59:34.577Z,18.24
2023-01-25T17:00:55.618Z,18.24
2023-01-25T17:02:16.532Z,18.24
2023-01-25T17:03:37.350Z,18.25
2023-01-25T17:05:00.182Z,18.25
2023-01-25T17:06:24.238Z,18.25
2023-01-25T17:07:49.308Z,18.23
2023-01-25T17:09:22.443Z,18.22
2023-01-25T17:10:47.204Z,18.30
2023-01-25T17:12:09.309Z,18.24
2023-01-25T17:13:30.098Z,18.21
2023-01-25T17:14:50.790Z,18.22
2023-01-25T17:16:11.335Z,18.20
2023-01-25T17:17:32.142Z,18.23
2023-01-25T17:18:54.011Z,18.21
2023-01-25T17:20:15.423Z,18.22
2023-01-25T17:21:36.055Z,18.21
2023-01-25T17:22:56.737Z,18.19
2023-01-25T17:24:19.517Z,18.18
2023-01-25T17:25:42.385Z,18.16
2023-01-25T17:27:06.014Z,18.19
2023-01-25T17:28:26.555Z,18.15
2023-01-25T17:29:47.446Z,18.17
2023-01-25T17:31:13.360Z,18.15
2023-01-25T17:32:34.315Z,18.14
2023-01-25T17:33:57.783Z,18.16
2023-01-25T17:35:21.575Z,18.16
2023-01-25T17:36:45.235Z,18.15
2023-01-25T17:38:06.057Z,18.18
2023-01-25T17:39:26.661Z,18.16
2023-01-25T17:40:47.519Z,18.15
2023-01-25T17:42:11.270Z,18.19
2023-01-25T17:43:34.681Z,18.21
2023-01-25T17:44:55.331Z,18.20
2023-01-25T17:46:20.199Z,18.19
2023-01-25T17:47:41.161Z,18.19
2023-01-25T17:49:02.279Z,18.20
2023-01-25T17:50:23.144Z,18.20
2023-01-25T17:51:44.883Z,18.20
2023-01-25T17:53:06.446Z,18.20
2023-01-25T17:54:27.139Z,18.20
2023-01-25T17:55:48.295Z,18.22
2023-01-25T17:57:11.612Z,18.20
2023-01-25T17:58:34.675Z,18.20
2023-01-25T17:59:57.679Z,18.20
2023-01-25T18:01:19.879Z,18.20
2023-01-25T18:02:43.261Z,18.19
2023-01-25T18:04:06.718Z,18.18
2023-01-25T18:05:30.637Z,18.18